Time;durP1;ratioP1;P1;durP2;ratioP2;P2;SDS_P1;SDS_P2;PMS_P1;PMS_P2;Temp;Humidity;BMP_temperature;BMP_pressure;BME280_temperature;BME280_humidity;BME280_pressure;Samples;Min_cycle;Max_cycle;Signal;HPM_P1;HPM_P2
2023/04/24 00:01:39;;;;;;;51.17;46.83;;;;;;;21.83;37.49;94812.88;6152986;28;108928;-65
2023/04/24 00:04:44;;;;;;;50.83;46.53;;;;;;;21.83;37.54;94806.78;6163387;28;108886;-64
2023/04/24 00:07:47;;;;;;;51.77;47.33;;;;;;;21.82;37.47;94792.66;6163353;28;109102;-65
2023/04/24 00:10:52;;;;;;;51.40;47.03;;;;;;;21.82;37.92;94787.34;6163177;28;108663;-65
2023/04/24 00:13:57;;;;;;;53.50;49.00;;;;;;;21.81;37.52;94785.75;6153985;28;109002;-64
2023/04/24 00:17:01;;;;;;;55.63;51.03;;;;;;;21.81;38.04;94775.09;6162825;28;109047;-64
2023/04/24 00:20:06;;;;;;;53.47;49.07;;;;;;;21.81;37.38;94775.88;6163154;28;108880;-63
2023/04/24 00:23:09;;;;;;;52.10;47.70;;;;;;;21.80;37.47;94774.31;6155739;28;110273;-64
2023/04/24 00:26:12;;;;;;;52.40;48.10;;;;;;;21.79;37.81;94769.28;6159706;28;109032;-65
2023/04/24 00:29:17;;;;;;;50.90;46.60;;;;;;;21.80;37.99;94770.84;6162194;28;108904;-64
2023/04/24 00:32:20;;;;;;;51.77;47.57;;;;;;;21.80;38.05;94773.53;6162971;28;109706;-63
2023/04/24 00:35:23;;;;;;;50.80;46.63;;;;;;;21.79;38.05;94769.28;6151278;28;109672;-64
2023/04/24 00:38:26;;;;;;;49.03;45.03;;;;;;;21.78;37.98;94762.41;6162808;28;108975;-63
2023/04/24 00:41:29;;;;;;;50.13;45.67;;;;;;;21.79;38.24;94764.75;6162766;28;108859;-63
2023/04/24 00:44:34;;;;;;;49.73;45.60;;;;;;;21.78;37.75;94765.06;6162264;28;108897;-63
2023/04/24 00:47:38;;;;;;;48.87;44.80;;;;;;;21.78;37.53;94760.50;6151337;28;108931;-64
2023/04/24 00:50:41;;;;;;;49.20;45.10;;;;;;;21.76;37.57;94760.03;6162303;28;108925;-64
2023/04/24 00:53:44;;;;;;;49.10;44.90;;;;;;;21.76;38.10;94767.25;6162484;28;108878;-64
2023/04/24 00:56:48;;;;;;;48.20;44.20;;;;;;;21.76;38.03;94776.03;6157519;28;109107;-64
2023/04/24 00:59:53;;;;;;;47.47;43.43;;;;;;;21.76;38.00;94769.91;6155377;28;109014;-64
2023/04/24 01:02:58;;;;;;;48.57;44.37;;;;;;;21.75;38.17;94774.47;6161631;28;108969;-64
2023/04/24 01:06:02;;;;;;;49.40;45.30;;;;;;;21.75;37.74;94773.69;6161896;28;109050;-64
2023/04/24 01:09:06;;;;;;;47.90;44.03;;;;;;;21.75;37.74;94774.47;6151417;28;108909;-64
2023/04/24 01:12:10;;;;;;;46.93;42.93;;;;;;;21.74;38.16;94778.22;6161885;28;108911;-63
2023/04/24 01:15:15;;;;;;;48.13;44.10;;;;;;;21.74;38.26;94775.56;6161521;28;108966;-63
2023/04/24 01:18:18;;;;;;;47.50;43.53;;;;;;;21.73;38.00;94778.53;6161942;28;109015;-63
2023/04/24 01:21:22;;;;;;;48.70;44.70;;;;;;;21.72;38.09;94763.66;6151642;28;109762;-64
2023/04/24 01:24:26;;;;;;;47.87;43.77;;;;;;;21.72;37.68;94759.09;6162048;28;108891;-63
2023/04/24 01:27:29;;;;;;;46.90;43.00;;;;;;;21.72;38.06;94766.31;6161733;28;108988;-64
2023/04/24 01:30:32;;;;;;;48.50;44.43;;;;;;;21.71;38.00;94754.09;6153765;28;108898;-64
2023/04/24 01:33:36;;;;;;;45.63;41.83;;;;;;;21.70;37.93;94749.84;6151223;28;108876;-64
2023/04/24 01:36:39;;;;;;;47.80;43.80;;;;;;;21.70;37.90;94750.66;6161654;28;108927;-63
2023/04/24 01:39:44;;;;;;;47.53;43.43;;;;;;;21.70;37.78;94744.53;6161341;28;108885;-64
2023/04/24 01:42:48;;;;;;;47.57;43.57;;;;;;;21.69;38.07;94750.94;6152786;28;108903;-65
2023/04/24 01:45:51;;;;;;;44.80;41.10;;;;;;;21.69;37.75;94733.09;6160334;28;109013;-63
2023/04/24 01:48:54;;;;;;;45.07;41.33;;;;;;;21.70;37.67;94741.88;6161226;28;108983;-63
2023/04/24 01:51:57;;;;;;;45.33;41.57;;;;;;;21.69;38.07;94732.31;6161788;28;109251;-64
2023/04/24 01:55:02;;;;;;;44.63;40.93;;;;;;;21.69;37.80;94734.97;6150523;28;108872;-63
2023/04/24 01:58:05;;;;;;;44.93;41.13;;;;;;;21.70;38.04;94725.88;6161125;28;108815;-64
2023/04/24 02:01:08;;;;;;;44.50;40.83;;;;;;;21.69;37.58;94724.31;6159881;28;108954;-64
2023/04/24 02:04:11;;;;;;;43.43;39.87;;;;;;;21.68;38.12;94722.75;6160903;28;108825;-63
2023/04/24 02:07:14;;;;;;;45.43;41.67;;;;;;;21.68;37.63;94714.78;6148128;28;108884;-63
2023/04/24 02:10:19;;;;;;;44.70;40.97;;;;;;;21.68;38.28;94720.88;6161088;28;108913;-63
2023/04/24 02:13:22;;;;;;;41.53;38.10;;;;;;;21.68;38.17;94714.78;6160588;28;109883;-63
2023/04/24 02:16:25;;;;;;;43.27;39.63;;;;;;;21.70;38.24;94723.22;6155032;28;108891;-63
2023/04/24 02:19:28;;;;;;;40.53;37.13;;;;;;;21.69;38.21;94717.13;6154716;28;108888;-64
2023/04/24 02:22:31;;;;;;;41.20;37.60;;;;;;;21.68;38.20;94715.56;6159147;28;108934;-62
2023/04/24 02:25:36;;;;;;;39.87;36.40;;;;;;;21.71;38.20;94714.94;6154853;28;109077;-62
2023/04/24 02:28:39;;;;;;;39.87;36.57;;;;;;;21.71;38.56;94719.47;6149408;28;109522;-64
2023/04/24 02:31:42;;;;;;;39.23;35.80;;;;;;;21.71;38.33;94716.81;6159670;28;108899;-62
2023/04/24 02:34:45;;;;;;;40.07;36.67;;;;;;;21.69;38.18;94722.44;6160251;28;109017;-62
2023/04/24 02:37:48;;;;;;;40.10;36.80;;;;;;;21.69;38.08;94721.66;6160457;28;108901;-62
2023/04/24 02:40:53;;;;;;;39.50;36.00;;;;;;;21.69;38.46;94721.66;6150295;28;110046;-62
2023/04/24 02:43:56;;;;;;;39.33;36.03;;;;;;;21.67;38.22;94713.16;6159946;28;108963;-65
2023/04/24 02:46:59;;;;;;;37.67;34.60;;;;;;;21.67;38.43;94708.63;6160760;28;109119;-63
2023/04/24 02:50:02;;;;;;;38.47;34.97;;;;;;;21.66;38.12;94698.28;6159141;28;108986;-62
2023/04/24 02:53:05;;;;;;;36.10;33.00;;;;;;;21.66;38.35;94695.63;6148878;28;109237;-63
2023/04/24 02:56:12;;;;;;;37.53;34.33;;;;;;;21.66;37.99;94703.63;6160631;28;109112;-62
2023/04/24 02:59:15;;;;;;;38.33;35.23;;;;;;;21.67;38.03;94705.19;6160551;28;108974;-64
2023/04/24 03:02:18;;;;;;;37.90;34.70;;;;;;;21.69;38.40;94703.03;6156882;28;108903;-64
2023/04/24 03:05:21;;;;;;;35.80;32.90;;;;;;;21.70;38.47;94694.72;6162000;28;108998;-62
2023/04/24 03:08:24;;;;;;;35.63;32.60;;;;;;;21.70;38.37;94704.59;6164636;28;109084;-62
2023/04/24 03:11:29;;;;;;;35.37;32.50;;;;;;;21.72;38.53;94707.72;6164362;28;108882;-62
2023/04/24 03:14:32;;;;;;;34.13;31.23;;;;;;;21.74;39.42;94711.63;6153557;28;108899;-62
2023/04/24 03:17:35;;;;;;;33.50;30.57;;;;;;;21.72;39.28;94705.84;6165016;28;108760;-62
2023/04/24 03:20:38;;;;;;;32.10;29.40;;;;;;;21.74;39.01;94714.31;6162851;28;108944;-62
2023/04/24 03:23:41;;;;;;;32.77;30.07;;;;;;;21.74;39.04;94716.97;6163247;28;109203;-63
2023/04/24 03:26:45;;;;;;;32.60;29.77;;;;;;;21.72;39.38;94718.38;6151490;28;108896;-63
2023/04/24 03:29:51;;;;;;;29.70;27.30;;;;;;;21.70;39.79;94708.03;6163389;28;108997;-63
2023/04/24 03:32:54;;;;;;;29.60;27.17;;;;;;;21.71;38.90;94709.59;6163176;28;109160;-64
2023/04/24 03:35:57;;;;;;;25.87;23.80;;;;;;;21.61;38.93;94719.75;6158433;28;108894;-62
2023/04/24 03:39:00;;;;;;;16.23;14.53;;;;;;;21.34;37.48;94708.25;6158592;28;108869;-61
2023/04/24 03:42:05;;;;;;;13.80;12.60;;;;;;;21.13;36.91;94710.69;6164407;28;109287;-59
2023/04/24 03:45:09;;;;;;;12.30;11.03;;;;;;;21.03;36.64;94710.16;6163668;28;108896;-61
2023/04/24 03:48:12;;;;;;;12.00;10.80;;;;;;;20.92;36.57;94709.63;6153569;28;109037;-62
2023/04/24 03:51:15;;;;;;;15.10;10.10;;;;;;;20.87;36.78;94707.09;6164136;28;109024;-60
2023/04/24 03:54:18;;;;;;;9.53;8.67;;;;;;;20.93;37.83;94711.97;6164209;28;108902;-61
2023/04/24 03:57:23;;;;;;;10.60;9.60;;;;;;;21.07;37.65;94717.22;6163391;28;108977;-66
2023/04/24 04:00:27;;;;;;;11.60;10.50;;;;;;;21.24;37.35;94715.72;6151585;28;108877;-65
2023/04/24 04:03:30;;;;;;;19.80;17.60;;;;;;;21.32;37.83;94712.31;6161639;28;108891;-65
2023/04/24 04:06:34;;;;;;;16.27;14.63;;;;;;;21.31;38.21;94716.84;6162750;28;109052;-64
2023/04/24 04:09:37;;;;;;;17.67;15.93;;;;;;;21.31;38.38;94718.72;6162658;28;108877;-64
2023/04/24 04:12:41;;;;;;;34.17;30.90;;;;;;;21.40;38.07;94725.66;6152857;28;110368;-64
2023/04/24 04:15:44;;;;;;;23.07;20.67;;;;;;;21.34;38.55;94721.56;6163105;28;109266;-63
2023/04/24 04:18:47;;;;;;;15.03;13.43;;;;;;;21.44;37.88;94726.59;6162298;28;108952;-64
2023/04/24 04:21:53;;;;;;;12.67;11.37;;;;;;;21.19;37.79;94729.97;6156079;28;109220;-62
2023/04/24 04:24:56;;;;;;;15.13;13.63;;;;;;;20.89;38.09;94726.19;6162412;28;108891;-61
2023/04/24 04:28:01;;;;;;;16.00;14.40;;;;;;;20.75;38.90;94728.94;6163477;28;108914;-62
2023/04/24 04:31:04;;;;;;;14.00;12.50;;;;;;;20.70;38.71;94721.09;6163488;28;108937;-61
2023/04/24 04:34:08;;;;;;;17.33;15.70;;;;;;;20.65;38.84;94726.50;6151479;28;109247;-61
2023/04/24 04:37:12;;;;;;;26.93;24.53;;;;;;;20.64;39.45;94722.28;6163575;28;108885;-60
2023/04/24 04:40:15;;;;;;;20.23;17.97;;;;;;;20.59;39.76;94731.19;6163762;28;108943;-61
2023/04/24 04:43:19;;;;;;;29.87;26.77;;;;;;;20.62;39.30;94733.22;6163195;28;108873;-60
2023/04/24 04:46:25;;;;;;;26.47;24.07;;;;;;;20.66;39.39;94727.31;6152293;28;108960;-60
2023/04/24 04:49:29;;;;;;;17.63;16.13;;;;;;;20.64;39.64;94732.91;6163164;28;110751;-61
2023/04/24 04:52:32;;;;;;;16.57;15.07;;;;;;;20.59;39.81;94738.38;6163332;28;108945;-60
2023/04/24 04:55:35;;;;;;;13.23;12.00;;;;;;;20.57;39.89;94738.69;6158209;28;108983;-60
2023/04/24 04:58:40;;;;;;;13.10;11.97;;;;;;;20.56;39.64;94746.97;6158139;28;109720;-63
2023/04/24 05:01:43;;;;;;;13.00;11.80;;;;;;;20.51;39.40;94749.75;6163221;28;108979;-60
2023/04/24 05:04:46;;;;;;;14.40;11.90;;;;;;;20.50;39.33;94753.47;6162010;28;108943;-61
2023/04/24 05:07:49;;;;;;;13.00;11.73;;;;;;;20.52;39.42;94761.94;6152187;28;108872;-60
2023/04/24 05:10:52;;;;;;;12.07;10.83;;;;;;;20.51;39.12;94750.53;6162812;28;109203;-60
2023/04/24 05:13:56;;;;;;;13.57;11.20;;;;;;;20.47;38.88;94751.41;6163026;28;108944;-61
2023/04/24 05:17:00;;;;;;;12.63;11.43;;;;;;;20.44;39.00;94741.41;6162942;28;108964;-60
2023/04/24 05:20:05;;;;;;;11.23;10.20;;;;;;;20.42;38.68;94760.31;6152359;28;108908;-61
2023/04/24 05:23:08;;;;;;;11.53;10.47;;;;;;;20.42;38.80;94754.19;6163019;28;108899;-60
2023/04/24 05:26:11;;;;;;;11.07;9.43;;;;;;;20.41;38.84;94761.38;6162893;28;109016;-60
2023/04/24 05:29:15;;;;;;;16.03;9.87;;;;;;;20.42;38.99;94754.19;6162916;28;108857;-60
2023/04/24 05:32:18;;;;;;;9.97;9.07;;;;;;;20.40;38.70;94761.69;6134109;28;108932;-60
2023/04/24 05:35:21;;;;;;;12.17;7.97;;;;;;;20.41;38.95;94752.63;6161132;28;108829;-59
2023/04/24 05:38:24;;;;;;;9.33;8.57;;;;;;;20.45;39.14;94751.72;6162643;28;108979;-60
2023/04/24 05:41:28;;;;;;;11.83;8.10;;;;;;;20.48;39.38;94750.31;6153391;28;108991;-61
2023/04/24 05:44:32;;;;;;;8.60;7.77;;;;;;;20.51;39.61;94758.50;6161462;28;108971;-60
2023/04/24 05:47:35;;;;;;;9.10;8.17;;;;;;;20.55;39.46;94761.34;6162257;28;108917;-60
2023/04/24 05:50:38;;;;;;;8.80;8.10;;;;;;;20.63;39.38;94760.59;6162269;28;108895;-62
2023/04/24 05:53:41;;;;;;;9.87;8.90;;;;;;;20.77;39.56;94761.31;6152013;28;108857;-62
2023/04/24 05:56:44;;;;;;;10.93;9.93;;;;;;;20.85;39.55;94762.47;6162073;28;109101;-62
2023/04/24 05:59:49;;;;;;;11.30;10.40;;;;;;;20.86;39.50;94762.16;6161948;28;109089;-62
2023/04/24 06:02:52;;;;;;;10.80;9.70;;;;;;;20.96;39.35;94753.13;6161462;28;108910;-62
2023/04/24 06:05:56;;;;;;;10.40;9.47;;;;;;;21.01;39.00;94760.22;6150270;28;108905;-62
2023/04/24 06:08:59;;;;;;;12.47;8.93;;;;;;;21.04;39.05;94756.94;6161820;28;108999;-62
2023/04/24 06:12:02;;;;;;;9.67;8.60;;;;;;;21.04;39.31;94752.41;6161538;28;108884;-62
2023/04/24 06:15:08;;;;;;;10.70;8.97;;;;;;;21.05;38.79;94755.88;6156967;28;109040;-62
2023/04/24 06:18:12;;;;;;;9.50;8.50;;;;;;;21.02;38.86;94751.94;6156710;28;108939;-61
2023/04/24 06:21:17;;;;;;;9.50;8.50;;;;;;;21.05;38.36;94747.91;6161681;28;108893;-63
2023/04/24 06:24:20;;;;;;;9.40;8.60;;;;;;;21.11;38.39;94757.31;6161581;28;108918;-62
2023/04/24 06:27:23;;;;;;;9.30;8.37;;;;;;;21.20;38.98;94755.47;6150796;28;108962;-64
2023/04/24 06:30:28;;;;;;;9.73;8.80;;;;;;;21.27;38.71;94761.13;6161107;28;109033;-62
2023/04/24 06:33:31;;;;;;;8.80;7.93;;;;;;;21.35;38.73;94760.41;6160581;28;108921;-62
2023/04/24 06:36:35;;;;;;;7.90;7.30;;;;;;;21.42;38.54;94751.97;6160303;28;108938;-62
2023/04/24 06:39:38;;;;;;;9.10;8.30;;;;;;;21.46;38.64;94753.69;6150374;28;108873;-65
2023/04/24 06:42:42;;;;;;;10.00;8.57;;;;;;;21.61;38.91;94760.47;6161000;28;108889;-62
2023/04/24 06:45:46;;;;;;;11.67;10.57;;;;;;;21.71;38.90;94752.22;6161137;28;108947;-62
2023/04/24 06:48:50;;;;;;;10.87;9.90;;;;;;;21.77;39.51;94748.28;6160932;28;109016;-62
2023/04/24 06:51:53;;;;;;;11.43;10.30;;;;;;;21.82;39.39;94760.72;6151621;28;108970;-63
2023/04/24 06:55:02;;;;;;;10.47;9.47;;;;;;;21.90;39.84;94753.84;6160911;28;109040;-63
2023/04/24 06:58:05;;;;;;;10.40;9.50;;;;;;;21.89;40.01;94750.41;6161556;28;108831;-63
2023/04/24 07:01:11;;;;;;;11.00;10.00;;;;;;;21.96;39.46;94753.38;6150632;28;108965;-60
2023/04/24 07:04:14;;;;;;;11.00;9.90;;;;;;;22.04;39.95;94754.50;6159397;28;109036;-60
2023/04/24 07:07:18;;;;;;;9.70;8.80;;;;;;;22.05;39.48;94748.84;6160050;28;108887;-60
2023/04/24 07:10:21;;;;;;;10.40;9.40;;;;;;;22.05;39.77;94756.84;6160701;28;108888;-63
2023/04/24 07:13:24;;;;;;;9.80;8.80;;;;;;;21.97;39.90;94749.59;6149996;28;108891;-63
2023/04/24 07:16:30;;;;;;;9.73;8.83;;;;;;;21.95;39.22;94743.03;6160783;28;108909;-63
2023/04/24 07:19:35;;;;;;;9.10;8.17;;;;;;;21.89;39.04;94742.41;6161109;28;108814;-63
2023/04/24 07:22:38;;;;;;;8.33;7.53;;;;;;;21.88;38.55;94735.50;6160517;28;108940;-64
2023/04/24 07:25:42;;;;;;;8.13;7.40;;;;;;;21.84;38.06;94734.53;6150190;28;109921;-63
2023/04/24 07:28:45;;;;;;;7.40;6.80;;;;;;;21.88;38.04;94735.50;6160905;28;108970;-64
2023/04/24 07:31:49;;;;;;;7.80;7.10;;;;;;;21.90;37.91;94735.19;6160537;28;108924;-63
2023/04/24 07:34:52;;;;;;;8.00;6.70;;;;;;;21.94;37.63;94736.91;6154591;28;108871;-63
2023/04/24 07:37:55;;;;;;;7.37;6.57;;;;;;;21.96;37.73;94724.06;6154413;28;109001;-65
2023/04/24 07:40:58;;;;;;;6.93;6.27;;;;;;;22.01;37.95;94723.94;6160405;28;108897;-63
2023/04/24 07:44:01;;;;;;;7.83;7.07;;;;;;;22.03;37.65;94721.72;6160632;28;108950;-62
2023/04/24 07:47:07;;;;;;;7.50;6.63;;;;;;;22.06;38.08;94715.78;6153417;28;109113;-63
2023/04/24 07:50:11;;;;;;;7.50;6.80;;;;;;;22.08;37.73;94726.91;6164474;28;108822;-62
2023/04/24 07:53:14;;;;;;;7.37;6.60;;;;;;;22.11;38.05;94717.50;6164196;28;108990;-63
2023/04/24 07:56:17;;;;;;;6.80;6.30;;;;;;;22.17;37.54;94720.78;6164284;28;108904;-66
2023/04/24 07:59:20;;;;;;;7.00;6.30;;;;;;;22.24;37.46;94707.78;6153858;28;108899;-66
2023/04/24 08:02:26;;;;;;;7.50;6.80;;;;;;;22.30;37.47;94698.50;6163610;28;108898;-66
2023/04/24 08:05:30;;;;;;;7.23;6.60;;;;;;;22.34;37.60;94702.88;6164122;28;109013;-66
2023/04/24 08:08:33;;;;;;;7.63;6.93;;;;;;;22.39;37.06;94709.97;6155482;28;108967;-63
2023/04/24 08:11:36;;;;;;;7.47;6.77;;;;;;;22.44;37.07;94709.78;6134088;28;108916;-61
2023/04/24 08:14:39;;;;;;;6.80;6.20;;;;;;;22.46;37.40;94704.91;6139530;28;108906;-61
2023/04/24 08:17:44;;;;;;;6.63;6.00;;;;;;;22.38;37.31;94706.50;6139700;28;108822;-64
2023/04/24 08:20:47;;;;;;;6.00;5.43;;;;;;;22.36;36.66;94702.59;6130092;28;110051;-64
2023/04/24 08:23:51;;;;;;;5.90;5.40;;;;;;;22.34;36.60;94697.56;6138860;28;108982;-64
2023/04/24 08:26:56;;;;;;;5.50;5.10;;;;;;;22.35;36.85;94693.03;6139412;28;108919;-63
2023/04/24 08:29:59;;;;;;;6.30;5.80;;;;;;;22.35;37.07;94695.72;6140650;28;108769;-64
2023/04/24 08:33:04;;;;;;;6.90;6.30;;;;;;;22.34;36.92;94688.78;6131982;28;110174;-63
2023/04/24 08:36:08;;;;;;;6.40;5.80;;;;;;;22.31;36.19;94684.88;6163105;28;108874;-65
2023/04/24 08:39:11;;;;;;;5.03;4.63;;;;;;;22.35;35.87;94685.03;6162433;28;108861;-65
2023/04/24 08:42:16;;;;;;;6.70;5.63;;;;;;;22.35;35.90;94677.03;6163110;28;108888;-65
2023/04/24 08:45:19;;;;;;;5.57;5.17;;;;;;;22.35;36.08;94677.81;6152200;28;108944;-65
2023/04/24 08:48:24;;;;;;;5.27;4.90;;;;;;;22.32;35.79;94661.66;6163520;28;108823;-65
2023/04/24 08:51:37;;;;;;;5.60;5.20;;;;;;;22.38;35.70;94673.75;6163029;28;108922;-65
2023/04/24 08:54:40;;;;;;;5.37;4.97;;;;;;;22.40;35.93;94660.88;6155412;28;108787;-65
2023/04/24 08:57:45;;;;;;;5.83;5.30;;;;;;;22.44;35.44;94655.69;6161295;28;108902;-65
2023/04/24 09:00:48;;;;;;;6.27;5.80;;;;;;;22.47;35.79;94652.38;6163492;28;108839;-65
2023/04/24 09:03:55;;;;;;;5.67;5.27;;;;;;;22.50;35.65;94647.19;6162530;28;108960;-65
2023/04/24 09:07:00;;;;;;;6.17;5.67;;;;;;;22.51;35.16;94645.31;6151874;28;108830;-65
2023/04/24 09:10:04;;;;;;;5.90;5.40;;;;;;;22.55;35.82;94648.94;6162251;28;108885;-65
2023/04/24 09:13:08;;;;;;;5.50;5.10;;;;;;;22.58;35.67;94643.75;6163360;28;108948;-65
2023/04/24 09:16:12;;;;;;;6.10;5.70;;;;;;;22.60;35.47;94636.22;6162696;28;108877;-65
2023/04/24 09:19:17;;;;;;;6.57;6.00;;;;;;;22.61;35.78;94635.13;6152080;28;109861;-65
2023/04/24 09:22:21;;;;;;;7.30;6.70;;;;;;;22.63;35.46;94637.47;6162860;28;108936;-64
2023/04/24 09:25:31;;;;;;;6.80;6.20;;;;;;;22.60;35.57;94628.22;6162391;28;108892;-64
2023/04/24 09:28:37;;;;;;;7.17;6.57;;;;;;;22.58;35.60;94622.44;6157964;28;109274;-65
2023/04/24 09:31:40;;;;;;;6.57;5.97;;;;;;;22.56;35.93;94616.59;6158225;28;108920;-64
2023/04/24 09:34:48;;;;;;;6.23;5.73;;;;;;;22.54;36.10;94618.81;6162212;28;109035;-64
2023/04/24 09:37:51;;;;;;;6.50;6.00;;;;;;;22.51;36.17;94611.41;6162312;28;109282;-64
2023/04/24 09:40:54;;;;;;;6.43;5.93;;;;;;;22.50;36.10;94612.53;6150379;28;108889;-64
2023/04/24 09:43:59;;;;;;;7.17;6.20;;;;;;;22.51;35.72;94608.75;6162226;28;109024;-64
2023/04/24 09:47:02;;;;;;;7.07;6.33;;;;;;;22.53;36.10;94606.59;6161966;28;108964;-63
2023/04/24 09:50:15;;;;;;;6.10;5.60;;;;;;;22.50;36.12;94604.53;6161894;28;108916;-63
2023/04/24 09:53:25;;;;;;;5.77;5.37;;;;;;;22.51;35.71;94600.75;6151737;28;108964;-63
2023/04/24 09:56:28;;;;;;;6.83;6.30;;;;;;;22.52;36.28;94594.34;6161741;28;108879;-63
2023/04/24 09:59:31;;;;;;;6.83;6.20;;;;;;;22.53;35.63;94592.47;6161828;28;108932;-63
2023/04/24 10:02:37;;;;;;;7.40;6.70;;;;;;;22.53;36.16;94585.25;6156543;28;108868;-64
2023/04/24 10:05:43;;;;;;;6.77;6.27;;;;;;;22.53;35.88;94584.47;6132873;28;109117;-63
2023/04/24 10:08:47;;;;;;;6.53;6.03;;;;;;;22.53;35.84;94573.81;6136863;28;108827;-63
2023/04/24 10:11:53;;;;;;;6.63;6.03;;;;;;;22.53;35.85;94579.91;6136549;28;108951;-63
2023/04/24 10:14:57;;;;;;;7.10;6.10;;;;;;;22.54;36.36;94572.69;6126796;28;109051;-63
2023/04/24 10:18:00;;;;;;;6.40;5.90;;;;;;;22.52;35.76;94573.03;6137546;28;108931;-63
2023/04/24 10:21:06;;;;;;;6.50;6.00;;;;;;;22.53;35.77;94561.25;6137349;28;108952;-64
2023/04/24 10:24:09;;;;;;;6.60;6.00;;;;;;;22.54;35.87;94554.81;6137395;28;108884;-64
2023/04/24 10:27:15;;;;;;;6.20;5.70;;;;;;;22.54;36.48;94544.16;6126438;28;109195;-63
2023/04/24 10:30:19;;;;;;;5.57;5.17;;;;;;;22.55;35.93;94545.72;6137186;28;108907;-65
2023/04/24 10:33:24;;;;;;;6.40;5.90;;;;;;;22.56;36.57;94541.94;6143353;28;108851;-64
2023/04/24 10:36:32;;;;;;;5.50;5.10;;;;;;;22.56;35.93;94547.28;6156336;28;108902;-65
2023/04/24 10:39:37;;;;;;;6.40;5.90;;;;;;;22.54;35.92;94540.69;6156036;28;109718;-65
2023/04/24 10:42:42;;;;;;;5.90;5.50;;;;;;;22.53;35.87;94537.25;6160379;28;108921;-64
2023/04/24 10:46:01;;;;;;;7.07;5.57;;;;;;;22.54;35.75;94533.47;6161045;28;108910;-64
2023/04/24 10:49:08;;;;;;;5.77;5.27;;;;;;;22.42;35.83;94528.03;6150144;28;108818;-60
2023/04/24 10:52:13;;;;;;;5.60;4.90;;;;;;;22.49;34.71;94519.53;6160845;28;108887;-61
2023/04/24 10:55:16;;;;;;;5.90;5.40;;;;;;;22.55;34.86;94527.03;6161293;28;108994;-60
2023/04/24 10:58:23;;;;;;;5.40;5.00;;;;;;;22.57;34.71;94516.88;6160954;28;108982;-60
2023/04/24 11:01:28;;;;;;;5.80;5.40;;;;;;;22.55;35.16;94504.94;6149775;28;109199;-61
2023/04/24 11:04:34;;;;;;;4.63;4.30;;;;;;;22.56;35.25;94507.28;6160664;28;109007;-61
2023/04/24 11:08:12;;;;;;;4.60;4.20;;;;;;;22.54;34.75;94490.03;6161010;28;108941;-61
2023/04/24 11:11:17;;;;;;;5.27;4.97;;;;;;;22.53;34.89;94489.25;6150078;28;108969;-60
2023/04/24 11:14:21;;;;;;;5.53;5.10;;;;;;;22.55;35.40;94495.03;6159603;28;108936;-61
2023/04/24 11:17:31;;;;;;;5.40;4.90;;;;;;;22.51;35.11;94480.00;6160683;28;108869;-60
2023/04/24 11:20:34;;;;;;;5.47;5.07;;;;;;;22.54;35.30;94480.16;6164922;28;108852;-61
2023/04/24 11:23:38;;;;;;;6.87;5.23;;;;;;;22.52;35.19;94477.03;6153916;28;109104;-61
2023/04/24 11:26:42;;;;;;;6.10;4.80;;;;;;;22.50;35.60;94473.88;6164727;28;108845;-61
2023/04/24 11:29:47;;;;;;;5.20;4.70;;;;;;;22.48;35.42;94480.63;6164651;28;109011;-60
2023/04/24 11:32:52;;;;;;;5.50;5.00;;;;;;;22.42;35.88;94491.50;6164851;28;108872;-60
2023/04/24 11:35:55;;;;;;;5.13;4.73;;;;;;;22.45;36.07;94502.59;6155246;28;108795;-60
2023/04/24 11:39:00;;;;;;;6.90;5.00;;;;;;;22.42;35.48;94520.03;6164437;28;108977;-60
2023/04/24 11:42:05;;;;;;;6.20;5.60;;;;;;;22.37;35.61;94529.00;6164509;28;108947;-60
2023/04/24 11:45:10;;;;;;;5.67;5.27;;;;;;;22.36;35.62;94539.97;6153534;28;108981;-61
2023/04/24 11:48:20;;;;;;;5.30;4.97;;;;;;;22.36;35.75;94539.97;6164005;28;108870;-60
2023/04/24 11:51:26;;;;;;;5.37;4.97;;;;;;;22.34;36.09;94544.81;6164246;28;108887;-60
2023/04/24 11:54:48;;;;;;;5.60;5.20;;;;;;;22.33;35.54;94548.59;6164660;28;108899;-66
2023/04/24 11:57:54;;;;;;;6.43;5.83;;;;;;;22.25;35.56;94531.53;6154020;28;109101;-61
2023/04/24 12:00:59;;;;;;;5.90;5.40;;;;;;;22.28;36.03;94519.47;6163938;28;108878;-61
2023/04/24 12:04:02;;;;;;;5.43;5.03;;;;;;;22.25;35.79;94525.44;6163503;28;108898;-60
2023/04/24 12:07:07;;;;;;;5.10;4.70;;;;;;;22.26;36.01;94511.00;6164293;28;108905;-60
2023/04/24 12:10:12;;;;;;;5.27;4.77;;;;;;;22.26;35.81;94503.00;6154634;28;110176;-61
2023/04/24 12:13:15;;;;;;;5.47;5.07;;;;;;;22.26;35.63;94497.69;6164122;28;108970;-62
2023/04/24 12:16:18;;;;;;;4.30;4.00;;;;;;;22.24;35.69;94492.66;6163044;28;108947;-61
2023/04/24 12:19:22;;;;;;;5.00;4.50;;;;;;;22.24;35.56;94486.56;6153389;28;109189;-61
2023/04/24 12:22:25;;;;;;;4.87;4.47;;;;;;;22.21;35.14;94473.88;6163439;28;108892;-61
2023/04/24 12:25:32;;;;;;;4.57;4.13;;;;;;;22.21;35.01;94471.22;6163732;28;108884;-60
2023/04/24 12:28:36;;;;;;;4.97;4.67;;;;;;;22.21;34.77;94472.00;6163578;28;108906;-60
2023/04/24 12:31:40;;;;;;;5.03;4.67;;;;;;;22.23;34.98;94490.31;6152044;28;109262;-60
2023/04/24 12:34:44;;;;;;;4.43;4.13;;;;;;;22.21;35.18;94485.31;6163842;28;108850;-59
2023/04/24 12:37:48;;;;;;;4.83;4.43;;;;;;;22.20;35.07;94477.66;6163763;28;108918;-60
2023/04/24 12:41:03;;;;;;;4.60;4.20;;;;;;;22.19;34.84;94465.41;6163255;28;108906;-60
2023/04/24 12:44:12;;;;;;;4.60;4.20;;;;;;;22.17;35.20;94454.28;6151910;28;108880;-61
2023/04/24 12:47:15;;;;;;;5.27;4.77;;;;;;;22.17;35.14;94467.59;6162752;28;108838;-60
2023/04/24 12:50:18;;;;;;;4.63;4.33;;;;;;;22.14;34.86;94461.03;6162981;28;109055;-61
2023/04/24 12:53:21;;;;;;;4.67;4.27;;;;;;;22.10;35.07;94442.25;6155230;28;108977;-61
2023/04/24 12:56:25;;;;;;;4.67;4.37;;;;;;;22.08;35.45;94441.78;6161732;28;108885;-61
2023/04/24 12:59:28;;;;;;;4.73;4.37;;;;;;;22.05;35.49;94437.09;6162852;28;108986;-60
2023/04/24 13:02:32;;;;;;;4.43;4.13;;;;;;;22.06;35.43;94427.22;6162230;28;108900;-60
2023/04/24 13:05:35;;;;;;;5.30;4.90;;;;;;;22.05;35.96;94429.09;6153065;28;109549;-60
2023/04/24 13:08:38;;;;;;;4.77;4.30;;;;;;;22.04;35.80;94413.44;6162881;28;109181;-60
2023/04/24 13:11:43;;;;;;;5.43;5.03;;;;;;;22.02;35.74;94413.75;6162956;28;108902;-60
2023/04/24 13:14:46;;;;;;;4.67;4.30;;;;;;;22.03;35.91;94401.22;6162596;28;108918;-60
2023/04/24 13:17:49;;;;;;;5.10;4.73;;;;;;;22.02;35.99;94405.00;6151350;28;108914;-60
2023/04/24 13:20:52;;;;;;;4.53;4.23;;;;;;;22.01;36.00;94401.53;6162937;28;108966;-60
2023/04/24 13:23:55;;;;;;;4.43;4.03;;;;;;;21.98;36.05;94394.16;6162881;28;108907;-60
2023/04/24 13:27:01;;;;;;;8.00;4.97;;;;;;;22.01;35.89;94398.06;6157737;28;108909;-60
2023/04/24 13:30:04;;;;;;;4.70;4.40;;;;;;;22.00;36.07;94397.28;6156584;28;108771;-60
2023/04/24 13:33:08;;;;;;;5.67;4.40;;;;;;;22.02;35.74;94392.44;6162090;28;108888;-61
2023/04/24 13:36:11;;;;;;;4.70;4.40;;;;;;;22.01;35.80;94382.91;6162215;28;108874;-60
2023/04/24 13:39:15;;;;;;;5.43;4.93;;;;;;;22.03;36.12;94385.25;6151360;28;108894;-60
2023/04/24 13:42:21;;;;;;;6.10;5.60;;;;;;;22.00;36.00;94386.63;6160924;28;108882;-60
2023/04/24 13:45:24;;;;;;;7.00;5.67;;;;;;;22.03;35.82;94378.03;6162060;28;108862;-60
2023/04/24 13:48:27;;;;;;;6.17;5.57;;;;;;;22.01;36.37;94372.25;6161356;28;108980;-60
2023/04/24 13:51:31;;;;;;;5.77;5.37;;;;;;;22.03;36.36;94363.94;6151703;28;109814;-70
2023/04/24 13:54:34;;;;;;;5.70;5.30;;;;;;;22.00;36.56;94349.34;6162292;28;108822;-61
2023/04/24 13:57:39;;;;;;;5.40;5.00;;;;;;;22.01;36.24;94350.94;6162087;28;108835;-60
2023/04/24 14:00:42;;;;;;;5.57;5.07;;;;;;;22.02;36.39;94349.03;6161882;28;109271;-60
2023/04/24 14:03:45;;;;;;;5.53;5.03;;;;;;;22.00;36.12;94341.34;6150766;28;109654;-60
2023/04/24 14:06:49;;;;;;;5.90;5.33;;;;;;;22.00;36.25;94332.56;6162029;28;108929;-60
2023/04/24 14:09:52;;;;;;;5.63;5.13;;;;;;;21.98;36.25;94332.13;6161817;28;108904;-60